sensor_id;sensor_type;location;lat;lon;timestamp;P1;durP1;ratioP1;P2;durP2;ratioP2
19043;SDS011;9654;52.302;8.120;2022-11-06T00:01:18;8.00;;;5.13;;
19043;SDS011;9654;52.302;8.120;2022-11-06T00:03:45;8.27;;;4.40;;
19043;SDS011;9654;52.302;8.120;2022-11-06T00:06:14;10.03;;;5.43;;
19043;SDS011;9654;52.302;8.120;2022-11-06T00:08:59;9.43;;;5.30;;
19043;SDS011;9654;52.302;8.120;2022-11-06T00:11:27;7.43;;;5.37;;
19043;SDS011;9654;52.302;8.120;2022-11-06T00:13:55;14.57;;;5.03;;
19043;SDS011;9654;52.302;8.120;2022-11-06T00:16:22;7.43;;;5.00;;
19043;SDS011;9654;52.302;8.120;2022-11-06T00:18:49;10.70;;;5.40;;
19043;SDS011;9654;52.302;8.120;2022-11-06T00:21:18;8.07;;;4.97;;
19043;SDS011;9654;52.302;8.120;2022-11-06T00:23:47;12.27;;;5.47;;
19043;SDS011;9654;52.302;8.120;2022-11-06T00:26:15;10.33;;;5.30;;
19043;SDS011;9654;52.302;8.120;2022-11-06T00:28:43;6.63;;;5.03;;
19043;SDS011;9654;52.302;8.120;2022-11-06T00:31:11;13.73;;;5.40;;
19043;SDS011;9654;52.302;8.120;2022-11-06T00:33:39;8.77;;;5.13;;
19043;SDS011;9654;52.302;8.120;2022-11-06T00:36:07;12.40;;;4.80;;
19043;SDS011;9654;52.302;8.120;2022-11-06T00:38:38;8.57;;;5.47;;
19043;SDS011;9654;52.302;8.120;2022-11-06T00:41:05;12.87;;;5.30;;
19043;SDS011;9654;52.302;8.120;2022-11-06T00:43:33;8.33;;;5.30;;
19043;SDS011;9654;52.302;8.120;2022-11-06T00:46:00;16.10;;;5.20;;
19043;SDS011;9654;52.302;8.120;2022-11-06T00:48:28;8.20;;;5.37;;
19043;SDS011;9654;52.302;8.120;2022-11-06T00:50:54;11.10;;;5.17;;
19043;SDS011;9654;52.302;8.120;2022-11-06T00:53:26;11.03;;;4.93;;
19043;SDS011;9654;52.302;8.120;2022-11-06T00:55:54;7.23;;;5.10;;
19043;SDS011;9654;52.302;8.120;2022-11-06T00:58:28;10.07;;;5.20;;
19043;SDS011;9654;52.302;8.120;2022-11-06T01:00:54;6.37;;;4.20;;
19043;SDS011;9654;52.302;8.120;2022-11-06T01:03:21;8.33;;;5.30;;
19043;SDS011;9654;52.302;8.120;2022-11-06T01:05:48;8.87;;;4.53;;
19043;SDS011;9654;52.302;8.120;2022-11-06T01:08:15;10.30;;;5.23;;
19043;SDS011;9654;52.302;8.120;2022-11-06T01:10:41;12.90;;;5.83;;
19043;SDS011;9654;52.302;8.120;2022-11-06T01:13:09;8.97;;;5.10;;
19043;SDS011;9654;52.302;8.120;2022-11-06T01:15:36;9.33;;;4.97;;
19043;SDS011;9654;52.302;8.120;2022-11-06T01:18:03;12.03;;;5.73;;
19043;SDS011;9654;52.302;8.120;2022-11-06T01:20:30;10.93;;;4.67;;
19043;SDS011;9654;52.302;8.120;2022-11-06T01:22:57;8.60;;;5.10;;
19043;SDS011;9654;52.302;8.120;2022-11-06T01:25:23;8.20;;;4.47;;
19043;SDS011;9654;52.302;8.120;2022-11-06T01:27:50;6.00;;;4.37;;
19043;SDS011;9654;52.302;8.120;2022-11-06T01:30:18;12.83;;;5.07;;
19043;SDS011;9654;52.302;8.120;2022-11-06T01:32:45;9.13;;;5.17;;
19043;SDS011;9654;52.302;8.120;2022-11-06T01:35:11;9.33;;;4.80;;
19043;SDS011;9654;52.302;8.120;2022-11-06T01:37:38;13.23;;;5.33;;
19043;SDS011;9654;52.302;8.120;2022-11-06T01:40:05;11.40;;;4.83;;
19043;SDS011;9654;52.302;8.120;2022-11-06T01:42:32;12.33;;;4.73;;
19043;SDS011;9654;52.302;8.120;2022-11-06T01:47:54;9.63;;;4.70;;
19043;SDS011;9654;52.302;8.120;2022-11-06T01:50:21;8.60;;;5.23;;
19043;SDS011;9654;52.302;8.120;2022-11-06T01:52:48;8.43;;;5.30;;
19043;SDS011;9654;52.302;8.120;2022-11-06T01:55:16;8.23;;;4.70;;
19043;SDS011;9654;52.302;8.120;2022-11-06T01:57:47;10.57;;;4.93;;
19043;SDS011;9654;52.302;8.120;2022-11-06T02:00:14;9.37;;;4.87;;
19043;SDS011;9654;52.302;8.120;2022-11-06T02:02:41;12.23;;;5.80;;
19043;SDS011;9654;52.302;8.120;2022-11-06T02:05:10;8.83;;;5.20;;
19043;SDS011;9654;52.302;8.120;2022-11-06T02:07:37;13.30;;;4.67;;
19043;SDS011;9654;52.302;8.120;2022-11-06T02:10:06;11.90;;;4.50;;
19043;SDS011;9654;52.302;8.120;2022-11-06T02:12:37;7.47;;;4.67;;
19043;SDS011;9654;52.302;8.120;2022-11-06T02:15:12;9.67;;;4.37;;
19043;SDS011;9654;52.302;8.120;2022-11-06T02:17:51;9.60;;;4.50;;
19043;SDS011;9654;52.302;8.120;2022-11-06T02:20:33;6.87;;;4.47;;
19043;SDS011;9654;52.302;8.120;2022-11-06T02:23:06;9.47;;;4.40;;
19043;SDS011;9654;52.302;8.120;2022-11-06T02:26:02;9.40;;;5.20;;
19043;SDS011;9654;52.302;8.120;2022-11-06T02:28:40;7.40;;;4.53;;
19043;SDS011;9654;52.302;8.120;2022-11-06T02:31:13;11.07;;;4.67;;
19043;SDS011;9654;52.302;8.120;2022-11-06T02:33:46;8.70;;;4.43;;
19043;SDS011;9654;52.302;8.120;2022-11-06T02:36:17;6.97;;;4.67;;
19043;SDS011;9654;52.302;8.120;2022-11-06T02:38:48;13.80;;;6.17;;
19043;SDS011;9654;52.302;8.120;2022-11-06T02:41:20;7.03;;;4.83;;
19043;SDS011;9654;52.302;8.120;2022-11-06T02:43:52;11.50;;;5.43;;
19043;SDS011;9654;52.302;8.120;2022-11-06T02:46:23;7.77;;;4.80;;
19043;SDS011;9654;52.302;8.120;2022-11-06T02:48:54;8.97;;;4.97;;
19043;SDS011;9654;52.302;8.120;2022-11-06T02:51:27;6.60;;;4.63;;
19043;SDS011;9654;52.302;8.120;2022-11-06T02:53:57;7.60;;;4.47;;
19043;SDS011;9654;52.302;8.120;2022-11-06T02:56:28;9.97;;;4.63;;
19043;SDS011;9654;52.302;8.120;2022-11-06T02:59:01;7.40;;;4.50;;
19043;SDS011;9654;52.302;8.120;2022-11-06T03:01:32;8.93;;;4.57;;
19043;SDS011;9654;52.302;8.120;2022-11-06T03:04:03;9.30;;;4.53;;
19043;SDS011;9654;52.302;8.120;2022-11-06T03:06:34;9.43;;;5.07;;
19043;SDS011;9654;52.302;8.120;2022-11-06T03:09:05;7.67;;;4.60;;
19043;SDS011;9654;52.302;8.120;2022-11-06T03:11:37;8.27;;;4.70;;
19043;SDS011;9654;52.302;8.120;2022-11-06T03:14:07;8.03;;;4.33;;
19043;SDS011;9654;52.302;8.120;2022-11-06T03:16:43;6.53;;;4.33;;
19043;SDS011;9654;52.302;8.120;2022-11-06T03:19:18;10.17;;;4.57;;
19043;SDS011;9654;52.302;8.120;2022-11-06T03:21:55;10.87;;;4.47;;
19043;SDS011;9654;52.302;8.120;2022-11-06T03:24:28;8.97;;;4.83;;
19043;SDS011;9654;52.302;8.120;2022-11-06T03:26:59;7.87;;;4.60;;
19043;SDS011;9654;52.302;8.120;2022-11-06T03:29:35;7.23;;;4.43;;
19043;SDS011;9654;52.302;8.120;2022-11-06T03:32:06;5.63;;;4.10;;
19043;SDS011;9654;52.302;8.120;2022-11-06T03:34:40;6.60;;;4.10;;
19043;SDS011;9654;52.302;8.120;2022-11-06T03:37:14;7.27;;;4.30;;
19043;SDS011;9654;52.302;8.120;2022-11-06T03:39:45;8.57;;;4.17;;
19043;SDS011;9654;52.302;8.120;2022-11-06T03:42:17;8.47;;;3.93;;
19043;SDS011;9654;52.302;8.120;2022-11-06T03:44:50;6.77;;;4.23;;
19043;SDS011;9654;52.302;8.120;2022-11-06T03:47:20;7.90;;;4.20;;
19043;SDS011;9654;52.302;8.120;2022-11-06T03:49:52;11.60;;;4.37;;
19043;SDS011;9654;52.302;8.120;2022-11-06T03:52:23;6.10;;;3.80;;
19043;SDS011;9654;52.302;8.120;2022-11-06T03:54:56;8.63;;;3.83;;
19043;SDS011;9654;52.302;8.120;2022-11-06T03:57:28;9.70;;;3.70;;
19043;SDS011;9654;52.302;8.120;2022-11-06T04:00:01;8.37;;;3.80;;
19043;SDS011;9654;52.302;8.120;2022-11-06T04:02:31;6.00;;;3.80;;
19043;SDS011;9654;52.302;8.120;2022-11-06T04:05:03;6.00;;;3.33;;
19043;SDS011;9654;52.302;8.120;2022-11-06T04:07:34;7.30;;;3.77;;
19043;SDS011;9654;52.302;8.120;2022-11-06T04:10:04;7.37;;;3.70;;
19043;SDS011;9654;52.302;8.120;2022-11-06T04:12:52;6.40;;;3.60;;
19043;SDS011;9654;52.302;8.120;2022-11-06T04:15:41;17.60;;;4.33;;
19043;SDS011;9654;52.302;8.120;2022-11-06T04:18:13;11.40;;;3.80;;
19043;SDS011;9654;52.302;8.120;2022-11-06T04:20:46;5.67;;;3.30;;
19043;SDS011;9654;52.302;8.120;2022-11-06T04:23:39;10.63;;;3.50;;
19043;SDS011;9654;52.302;8.120;2022-11-06T04:26:33;5.47;;;3.53;;
19043;SDS011;9654;52.302;8.120;2022-11-06T04:29:05;6.30;;;3.60;;
19043;SDS011;9654;52.302;8.120;2022-11-06T04:31:41;7.70;;;3.10;;
19043;SDS011;9654;52.302;8.120;2022-11-06T04:34:17;6.07;;;3.30;;
19043;SDS011;9654;52.302;8.120;2022-11-06T04:36:52;8.17;;;3.40;;
19043;SDS011;9654;52.302;8.120;2022-11-06T04:39:27;4.83;;;2.80;;
19043;SDS011;9654;52.302;8.120;2022-11-06T04:42:04;7.70;;;3.20;;
19043;SDS011;9654;52.302;8.120;2022-11-06T04:44:36;9.40;;;3.70;;
19043;SDS011;9654;52.302;8.120;2022-11-06T04:47:07;8.13;;;3.20;;
19043;SDS011;9654;52.302;8.120;2022-11-06T04:49:37;9.27;;;3.10;;
19043;SDS011;9654;52.302;8.120;2022-11-06T04:52:07;5.00;;;2.93;;
19043;SDS011;9654;52.302;8.120;2022-11-06T04:54:37;5.27;;;3.20;;
19043;SDS011;9654;52.302;8.120;2022-11-06T04:57:04;7.70;;;3.30;;
19043;SDS011;9654;52.302;8.120;2022-11-06T04:59:32;11.50;;;3.47;;
19043;SDS011;9654;52.302;8.120;2022-11-06T05:02:00;9.60;;;3.00;;
19043;SDS011;9654;52.302;8.120;2022-11-06T05:04:29;10.93;;;3.30;;
19043;SDS011;9654;52.302;8.120;2022-11-06T05:06:55;5.50;;;3.23;;
19043;SDS011;9654;52.302;8.120;2022-11-06T05:09:22;7.40;;;3.23;;
19043;SDS011;9654;52.302;8.120;2022-11-06T05:11:49;3.43;;;2.50;;
19043;SDS011;9654;52.302;8.120;2022-11-06T05:14:16;7.40;;;3.30;;
19043;SDS011;9654;52.302;8.120;2022-11-06T05:16:43;4.93;;;2.83;;
19043;SDS011;9654;52.302;8.120;2022-11-06T05:19:10;5.70;;;3.20;;
19043;SDS011;9654;52.302;8.120;2022-11-06T05:21:38;11.80;;;3.07;;
19043;SDS011;9654;52.302;8.120;2022-11-06T05:24:22;7.67;;;3.20;;
19043;SDS011;9654;52.302;8.120;2022-11-06T05:26:49;9.00;;;3.53;;
19043;SDS011;9654;52.302;8.120;2022-11-06T05:29:15;7.10;;;3.97;;
19043;SDS011;9654;52.302;8.120;2022-11-06T05:31:42;9.13;;;2.93;;
19043;SDS011;9654;52.302;8.120;2022-11-06T05:34:09;3.20;;;2.60;;
19043;SDS011;9654;52.302;8.120;2022-11-06T05:36:37;6.33;;;2.97;;
19043;SDS011;9654;52.302;8.120;2022-11-06T05:39:04;6.83;;;2.90;;
19043;SDS011;9654;52.302;8.120;2022-11-06T05:41:30;6.77;;;2.57;;
19043;SDS011;9654;52.302;8.120;2022-11-06T05:43:58;6.63;;;2.80;;
19043;SDS011;9654;52.302;8.120;2022-11-06T05:46:25;6.23;;;3.20;;
19043;SDS011;9654;52.302;8.120;2022-11-06T05:48:51;8.37;;;3.07;;
19043;SDS011;9654;52.302;8.120;2022-11-06T05:51:18;5.90;;;2.80;;
19043;SDS011;9654;52.302;8.120;2022-11-06T05:53:47;7.90;;;3.43;;
19043;SDS011;9654;52.302;8.120;2022-11-06T05:56:13;8.63;;;3.10;;
19043;SDS011;9654;52.302;8.120;2022-11-06T05:58:40;8.47;;;2.53;;
19043;SDS011;9654;52.302;8.120;2022-11-06T06:01:07;8.40;;;3.43;;
19043;SDS011;9654;52.302;8.120;2022-11-06T06:03:35;10.80;;;3.00;;
19043;SDS011;9654;52.302;8.120;2022-11-06T06:06:02;5.67;;;2.47;;
19043;SDS011;9654;52.302;8.120;2022-11-06T06:08:29;10.33;;;3.03;;
19043;SDS011;9654;52.302;8.120;2022-11-06T06:10:57;6.33;;;3.40;;
19043;SDS011;9654;52.302;8.120;2022-11-06T06:13:24;5.97;;;3.70;;
19043;SDS011;9654;52.302;8.120;2022-11-06T06:15:51;6.20;;;3.30;;
19043;SDS011;9654;52.302;8.120;2022-11-06T06:18:17;5.77;;;3.20;;
19043;SDS011;9654;52.302;8.120;2022-11-06T06:20:44;13.47;;;3.70;;
19043;SDS011;9654;52.302;8.120;2022-11-06T06:23:11;4.43;;;2.63;;
19043;SDS011;9654;52.302;8.120;2022-11-06T06:25:37;7.67;;;2.70;;
19043;SDS011;9654;52.302;8.120;2022-11-06T06:28:06;5.20;;;2.80;;
19043;SDS011;9654;52.302;8.120;2022-11-06T06:30:32;4.60;;;2.57;;
19043;SDS011;9654;52.302;8.120;2022-11-06T06:33:02;7.70;;;2.70;;
19043;SDS011;9654;52.302;8.120;2022-11-06T06:35:30;8.57;;;2.87;;
19043;SDS011;9654;52.302;8.120;2022-11-06T06:37:57;8.57;;;4.07;;
19043;SDS011;9654;52.302;8.120;2022-11-06T06:40:24;6.27;;;2.90;;
19043;SDS011;9654;52.302;8.120;2022-11-06T06:42:50;8.83;;;2.53;;
19043;SDS011;9654;52.302;8.120;2022-11-06T06:45:22;7.53;;;2.80;;
19043;SDS011;9654;52.302;8.120;2022-11-06T06:47:49;6.33;;;3.00;;
19043;SDS011;9654;52.302;8.120;2022-11-06T06:50:16;9.37;;;3.80;;
19043;SDS011;9654;52.302;8.120;2022-11-06T06:52:43;3.37;;;2.53;;
19043;SDS011;9654;52.302;8.120;2022-11-06T06:55:12;10.83;;;2.80;;
19043;SDS011;9654;52.302;8.120;2022-11-06T06:57:38;5.10;;;2.50;;
19043;SDS011;9654;52.302;8.120;2022-11-06T07:00:12;13.20;;;3.07;;
19043;SDS011;9654;52.302;8.120;2022-11-06T07:02:52;6.23;;;2.47;;
19043;SDS011;9654;52.302;8.120;2022-11-06T07:05:19;5.97;;;2.70;;
19043;SDS011;9654;52.302;8.120;2022-11-06T07:07:51;6.63;;;2.40;;
19043;SDS011;9654;52.302;8.120;2022-11-06T07:10:18;9.73;;;3.50;;
19043;SDS011;9654;52.302;8.120;2022-11-06T07:12:44;8.80;;;2.30;;
19043;SDS011;9654;52.302;8.120;2022-11-06T07:15:11;5.37;;;2.47;;
19043;SDS011;9654;52.302;8.120;2022-11-06T07:17:44;4.73;;;2.73;;
19043;SDS011;9654;52.302;8.120;2022-11-06T07:20:12;6.50;;;2.97;;
19043;SDS011;9654;52.302;8.120;2022-11-06T07:22:39;8.93;;;2.90;;
19043;SDS011;9654;52.302;8.120;2022-11-06T07:25:06;8.13;;;2.77;;
19043;SDS011;9654;52.302;8.120;2022-11-06T07:27:38;8.57;;;2.73;;
19043;SDS011;9654;52.302;8.120;2022-11-06T07:30:05;5.17;;;2.73;;
19043;SDS011;9654;52.302;8.120;2022-11-06T07:32:32;4.17;;;2.50;;
19043;SDS011;9654;52.302;8.120;2022-11-06T07:34:59;4.67;;;2.60;;
19043;SDS011;9654;52.302;8.120;2022-11-06T07:37:27;7.57;;;2.67;;
19043;SDS011;9654;52.302;8.120;2022-11-06T07:39:54;8.10;;;3.00;;
19043;SDS011;9654;52.302;8.120;2022-11-06T07:42:21;8.27;;;2.93;;
19043;SDS011;9654;52.302;8.120;2022-11-06T07:44:47;6.13;;;2.97;;
19043;SDS011;9654;52.302;8.120;2022-11-06T07:47:18;6.93;;;3.57;;
19043;SDS011;9654;52.302;8.120;2022-11-06T07:49:45;6.37;;;2.83;;
19043;SDS011;9654;52.302;8.120;2022-11-06T07:52:11;6.93;;;2.70;;
19043;SDS011;9654;52.302;8.120;2022-11-06T07:54:39;5.10;;;2.70;;
19043;SDS011;9654;52.302;8.120;2022-11-06T07:57:06;7.17;;;2.93;;
19043;SDS011;9654;52.302;8.120;2022-11-06T07:59:33;6.50;;;2.30;;
19043;SDS011;9654;52.302;8.120;2022-11-06T08:02:00;12.53;;;3.50;;
19043;SDS011;9654;52.302;8.120;2022-11-06T08:04:27;9.13;;;2.47;;
19043;SDS011;9654;52.302;8.120;2022-11-06T08:06:55;5.13;;;2.40;;
19043;SDS011;9654;52.302;8.120;2022-11-06T08:09:22;6.00;;;2.30;;
19043;SDS011;9654;52.302;8.120;2022-11-06T08:11:50;7.40;;;2.57;;
19043;SDS011;9654;52.302;8.120;2022-11-06T08:14:17;7.77;;;2.63;;
19043;SDS011;9654;52.302;8.120;2022-11-06T08:16:44;4.23;;;2.00;;
19043;SDS011;9654;52.302;8.120;2022-11-06T08:19:11;4.30;;;2.27;;
19043;SDS011;9654;52.302;8.120;2022-11-06T08:21:38;6.03;;;2.07;;
19043;SDS011;9654;52.302;8.120;2022-11-06T08:24:05;4.13;;;2.20;;
19043;SDS011;9654;52.302;8.120;2022-11-06T08:26:32;7.37;;;2.33;;
19043;SDS011;9654;52.302;8.120;2022-11-06T08:29:00;6.17;;;2.00;;
19043;SDS011;9654;52.302;8.120;2022-11-06T08:31:27;8.50;;;2.20;;
19043;SDS011;9654;52.302;8.120;2022-11-06T08:33:53;6.97;;;2.53;;
19043;SDS011;9654;52.302;8.120;2022-11-06T08:36:20;7.53;;;2.10;;
19043;SDS011;9654;52.302;8.120;2022-11-06T08:38:47;5.97;;;2.37;;
19043;SDS011;9654;52.302;8.120;2022-11-06T08:41:14;4.70;;;1.97;;
19043;SDS011;9654;52.302;8.120;2022-11-06T08:43:41;6.30;;;2.63;;
19043;SDS011;9654;52.302;8.120;2022-11-06T08:46:09;7.17;;;2.40;;
19043;SDS011;9654;52.302;8.120;2022-11-06T08:48:36;2.67;;;1.80;;
19043;SDS011;9654;52.302;8.120;2022-11-06T08:51:04;5.73;;;1.80;;
19043;SDS011;9654;52.302;8.120;2022-11-06T08:53:31;6.67;;;2.10;;
19043;SDS011;9654;52.302;8.120;2022-11-06T08:55:58;5.40;;;2.03;;
19043;SDS011;9654;52.302;8.120;2022-11-06T08:58:27;4.90;;;2.00;;
19043;SDS011;9654;52.302;8.120;2022-11-06T09:00:54;5.50;;;2.20;;
19043;SDS011;9654;52.302;8.120;2022-11-06T09:03:22;5.37;;;2.23;;
19043;SDS011;9654;52.302;8.120;2022-11-06T09:05:48;6.47;;;1.90;;
19043;SDS011;9654;52.302;8.120;2022-11-06T09:08:15;6.93;;;2.07;;
19043;SDS011;9654;52.302;8.120;2022-11-06T09:10:42;7.70;;;2.30;;
19043;SDS011;9654;52.302;8.120;2022-11-06T09:13:09;5.90;;;2.37;;
19043;SDS011;9654;52.302;8.120;2022-11-06T09:15:36;7.47;;;2.30;;
19043;SDS011;9654;52.302;8.120;2022-11-06T09:18:04;6.03;;;2.47;;
19043;SDS011;9654;52.302;8.120;2022-11-06T09:20:32;2.67;;;1.80;;
19043;SDS011;9654;52.302;8.120;2022-11-06T09:22:59;6.13;;;1.80;;
19043;SDS011;9654;52.302;8.120;2022-11-06T09:25:27;8.13;;;2.10;;
19043;SDS011;9654;52.302;8.120;2022-11-06T09:27:54;3.50;;;2.07;;
19043;SDS011;9654;52.302;8.120;2022-11-06T09:30:21;8.90;;;2.10;;
19043;SDS011;9654;52.302;8.120;2022-11-06T09:32:50;7.40;;;2.70;;
19043;SDS011;9654;52.302;8.120;2022-11-06T09:35:18;5.73;;;2.00;;
19043;SDS011;9654;52.302;8.120;2022-11-06T09:37:48;3.40;;;1.63;;
19043;SDS011;9654;52.302;8.120;2022-11-06T09:40:19;7.47;;;1.87;;
19043;SDS011;9654;52.302;8.120;2022-11-06T09:42:52;5.83;;;1.90;;
19043;SDS011;9654;52.302;8.120;2022-11-06T09:45:29;4.53;;;1.80;;
19043;SDS011;9654;52.302;8.120;2022-11-06T09:47:59;5.13;;;1.43;;
19043;SDS011;9654;52.302;8.120;2022-11-06T09:50:37;8.27;;;1.90;;
19043;SDS011;9654;52.302;8.120;2022-11-06T09:53:10;3.27;;;1.20;;
19043;SDS011;9654;52.302;8.120;2022-11-06T09:55:44;4.87;;;2.27;;
19043;SDS011;9654;52.302;8.120;2022-11-06T09:58:14;2.93;;;1.50;;
19043;SDS011;9654;52.302;8.120;2022-11-06T10:00:45;4.63;;;2.63;;
19043;SDS011;9654;52.302;8.120;2022-11-06T10:03:15;5.80;;;1.63;;
19043;SDS011;9654;52.302;8.120;2022-11-06T10:05:47;8.50;;;1.60;;
19043;SDS011;9654;52.302;8.120;2022-11-06T10:08:16;3.37;;;1.50;;
19043;SDS011;9654;52.302;8.120;2022-11-06T10:10:49;6.93;;;1.97;;
19043;SDS011;9654;52.302;8.120;2022-11-06T10:13:32;4.10;;;1.40;;
19043;SDS011;9654;52.302;8.120;2022-11-06T10:16:14;3.03;;;1.57;;
19043;SDS011;9654;52.302;8.120;2022-11-06T10:18:50;4.00;;;1.70;;
19043;SDS011;9654;52.302;8.120;2022-11-06T10:21:22;7.10;;;1.90;;
19043;SDS011;9654;52.302;8.120;2022-11-06T10:23:53;6.47;;;1.60;;
19043;SDS011;9654;52.302;8.120;2022-11-06T10:26:26;7.30;;;1.77;;
19043;SDS011;9654;52.302;8.120;2022-11-06T10:32:00;6.67;;;3.00;;
19043;SDS011;9654;52.302;8.120;2022-11-06T10:34:37;2.93;;;1.60;;
19043;SDS011;9654;52.302;8.120;2022-11-06T10:37:07;8.37;;;2.77;;
19043;SDS011;9654;52.302;8.120;2022-11-06T10:39:39;4.07;;;1.47;;
19043;SDS011;9654;52.302;8.120;2022-11-06T10:42:09;6.67;;;1.77;;
19043;SDS011;9654;52.302;8.120;2022-11-06T10:44:41;2.10;;;1.40;;
19043;SDS011;9654;52.302;8.120;2022-11-06T10:47:15;6.27;;;1.83;;
19043;SDS011;9654;52.302;8.120;2022-11-06T10:49:45;3.67;;;1.37;;
19043;SDS011;9654;52.302;8.120;2022-11-06T10:52:21;3.93;;;1.50;;
19043;SDS011;9654;52.302;8.120;2022-11-06T10:55:13;5.13;;;1.97;;
19043;SDS011;9654;52.302;8.120;2022-11-06T10:58:03;5.57;;;1.93;;
19043;SDS011;9654;52.302;8.120;2022-11-06T11:00:31;3.70;;;1.50;;
19043;SDS011;9654;52.302;8.120;2022-11-06T11:03:00;5.63;;;1.60;;
19043;SDS011;9654;52.302;8.120;2022-11-06T11:05:32;4.17;;;1.70;;
19043;SDS011;9654;52.302;8.120;2022-11-06T11:08:03;2.90;;;1.30;;
19043;SDS011;9654;52.302;8.120;2022-11-06T11:10:31;5.40;;;1.60;;
19043;SDS011;9654;52.302;8.120;2022-11-06T11:13:00;3.73;;;1.60;;
19043;SDS011;9654;52.302;8.120;2022-11-06T11:15:30;3.20;;;1.77;;
19043;SDS011;9654;52.302;8.120;2022-11-06T11:18:08;4.67;;;1.83;;
19043;SDS011;9654;52.302;8.120;2022-11-06T11:20:42;4.70;;;1.40;;
19043;SDS011;9654;52.302;8.120;2022-11-06T11:23:12;4.97;;;1.80;;
19043;SDS011;9654;52.302;8.120;2022-11-06T11:25:43;2.87;;;1.57;;
19043;SDS011;9654;52.302;8.120;2022-11-06T11:28:25;5.20;;;1.80;;
19043;SDS011;9654;52.302;8.120;2022-11-06T11:30:54;4.03;;;2.40;;
19043;SDS011;9654;52.302;8.120;2022-11-06T11:33:29;1.93;;;1.40;;
19043;SDS011;9654;52.302;8.120;2022-11-06T11:35:56;5.73;;;1.60;;
19043;SDS011;9654;52.302;8.120;2022-11-06T11:38:23;6.23;;;1.53;;
19043;SDS011;9654;52.302;8.120;2022-11-06T11:40:51;3.23;;;1.63;;
19043;SDS011;9654;52.302;8.120;2022-11-06T11:43:31;11.47;;;3.33;;
19043;SDS011;9654;52.302;8.120;2022-11-06T11:46:16;3.67;;;2.33;;
19043;SDS011;9654;52.302;8.120;2022-11-06T11:48:45;3.77;;;1.77;;
19043;SDS011;9654;52.302;8.120;2022-11-06T11:51:16;5.30;;;1.50;;
19043;SDS011;9654;52.302;8.120;2022-11-06T11:54:03;3.00;;;1.23;;
19043;SDS011;9654;52.302;8.120;2022-11-06T11:56:42;6.53;;;1.70;;
19043;SDS011;9654;52.302;8.120;2022-11-06T11:59:14;7.10;;;1.90;;
19043;SDS011;9654;52.302;8.120;2022-11-06T12:01:44;3.13;;;1.37;;
19043;SDS011;9654;52.302;8.120;2022-11-06T12:04:14;5.37;;;1.60;;
19043;SDS011;9654;52.302;8.120;2022-11-06T12:06:49;5.53;;;1.57;;
19043;SDS011;9654;52.302;8.120;2022-11-06T12:09:18;4.07;;;1.27;;
19043;SDS011;9654;52.302;8.120;2022-11-06T12:11:46;3.50;;;1.00;;
19043;SDS011;9654;52.302;8.120;2022-11-06T12:14:17;6.33;;;1.50;;
19043;SDS011;9654;52.302;8.120;2022-11-06T12:16:51;3.37;;;1.13;;
19043;SDS011;9654;52.302;8.120;2022-11-06T12:19:20;2.00;;;1.10;;
19043;SDS011;9654;52.302;8.120;2022-11-06T12:21:50;4.33;;;1.30;;
19043;SDS011;9654;52.302;8.120;2022-11-06T12:24:21;3.67;;;1.87;;
19043;SDS011;9654;52.302;8.120;2022-11-06T12:26:54;4.67;;;1.40;;
19043;SDS011;9654;52.302;8.120;2022-11-06T12:29:26;3.37;;;1.30;;
19043;SDS011;9654;52.302;8.120;2022-11-06T12:31:57;2.90;;;1.13;;
19043;SDS011;9654;52.302;8.120;2022-11-06T12:34:30;3.53;;;1.20;;
19043;SDS011;9654;52.302;8.120;2022-11-06T12:37:03;2.43;;;1.03;;
19043;SDS011;9654;52.302;8.120;2022-11-06T12:39:38;6.87;;;1.40;;
19043;SDS011;9654;52.302;8.120;2022-11-06T12:42:10;2.17;;;1.20;;
19043;SDS011;9654;52.302;8.120;2022-11-06T12:44:38;2.47;;;1.30;;
19043;SDS011;9654;52.302;8.120;2022-11-06T12:47:06;2.87;;;1.33;;
19043;SDS011;9654;52.302;8.120;2022-11-06T12:49:50;5.90;;;1.50;;
19043;SDS011;9654;52.302;8.120;2022-11-06T12:52:30;1.57;;;1.30;;
19043;SDS011;9654;52.302;8.120;2022-11-06T12:55:12;4.27;;;1.40;;
19043;SDS011;9654;52.302;8.120;2022-11-06T12:57:50;4.37;;;1.53;;
19043;SDS011;9654;52.302;8.120;2022-11-06T13:00:24;5.27;;;1.97;;
19043;SDS011;9654;52.302;8.120;2022-11-06T13:06:03;4.07;;;1.23;;
19043;SDS011;9654;52.302;8.120;2022-11-06T13:08:38;2.47;;;1.30;;
19043;SDS011;9654;52.302;8.120;2022-11-06T13:11:15;4.57;;;1.20;;
19043;SDS011;9654;52.302;8.120;2022-11-06T13:13:57;5.00;;;1.07;;
19043;SDS011;9654;52.302;8.120;2022-11-06T13:16:32;6.97;;;1.60;;
19043;SDS011;9654;52.302;8.120;2022-11-06T13:19:08;5.23;;;1.30;;
19043;SDS011;9654;52.302;8.120;2022-11-06T13:21:59;4.50;;;1.40;;
19043;SDS011;9654;52.302;8.120;2022-11-06T13:24:45;5.77;;;1.30;;
19043;SDS011;9654;52.302;8.120;2022-11-06T13:27:25;6.73;;;1.37;;
19043;SDS011;9654;52.302;8.120;2022-11-06T13:30:00;6.03;;;1.57;;
19043;SDS011;9654;52.302;8.120;2022-11-06T13:32:31;2.73;;;1.67;;
19043;SDS011;9654;52.302;8.120;2022-11-06T13:35:01;3.60;;;1.60;;
19043;SDS011;9654;52.302;8.120;2022-11-06T13:37:36;4.23;;;1.40;;
19043;SDS011;9654;52.302;8.120;2022-11-06T13:40:09;3.47;;;1.90;;
19043;SDS011;9654;52.302;8.120;2022-11-06T13:42:45;5.70;;;2.53;;
19043;SDS011;9654;52.302;8.120;2022-11-06T13:45:15;3.73;;;1.70;;
19043;SDS011;9654;52.302;8.120;2022-11-06T13:47:47;4.27;;;1.47;;
19043;SDS011;9654;52.302;8.120;2022-11-06T13:50:21;4.43;;;1.40;;
19043;SDS011;9654;52.302;8.120;2022-11-06T13:52:56;3.70;;;1.47;;
19043;SDS011;9654;52.302;8.120;2022-11-06T13:55:30;3.73;;;1.57;;
19043;SDS011;9654;52.302;8.120;2022-11-06T13:58:10;2.60;;;1.40;;
19043;SDS011;9654;52.302;8.120;2022-11-06T14:00:56;2.47;;;1.57;;
19043;SDS011;9654;52.302;8.120;2022-11-06T14:06:39;4.27;;;1.80;;
19043;SDS011;9654;52.302;8.120;2022-11-06T14:09:08;5.03;;;1.97;;
19043;SDS011;9654;52.302;8.120;2022-11-06T14:11:41;9.17;;;4.50;;
19043;SDS011;9654;52.302;8.120;2022-11-06T14:14:10;6.60;;;2.40;;
19043;SDS011;9654;52.302;8.120;2022-11-06T14:16:41;3.00;;;1.80;;
19043;SDS011;9654;52.302;8.120;2022-11-06T14:19:10;3.10;;;1.60;;
19043;SDS011;9654;52.302;8.120;2022-11-06T14:21:42;6.30;;;1.93;;
19043;SDS011;9654;52.302;8.120;2022-11-06T14:26:59;4.63;;;2.17;;
19043;SDS011;9654;52.302;8.120;2022-11-06T14:38:17;8.93;;;2.07;;
19043;SDS011;9654;52.302;8.120;2022-11-06T14:44:17;6.63;;;2.57;;
19043;SDS011;9654;52.302;8.120;2022-11-06T14:47:04;6.77;;;2.27;;
19043;SDS011;9654;52.302;8.120;2022-11-06T14:49:39;8.33;;;3.50;;
19043;SDS011;9654;52.302;8.120;2022-11-06T14:52:11;7.00;;;3.97;;
19043;SDS011;9654;52.302;8.120;2022-11-06T14:54:40;3.90;;;2.87;;
19043;SDS011;9654;52.302;8.120;2022-11-06T14:57:17;6.33;;;3.30;;
19043;SDS011;9654;52.302;8.120;2022-11-06T15:00:00;7.50;;;4.33;;
19043;SDS011;9654;52.302;8.120;2022-11-06T15:02:27;5.63;;;3.30;;
19043;SDS011;9654;52.302;8.120;2022-11-06T15:04:58;7.30;;;3.47;;
19043;SDS011;9654;52.302;8.120;2022-11-06T15:07:32;5.43;;;2.60;;
19043;SDS011;9654;52.302;8.120;2022-11-06T15:10:00;4.53;;;2.60;;
19043;SDS011;9654;52.302;8.120;2022-11-06T15:15:29;3.70;;;2.10;;
19043;SDS011;9654;52.302;8.120;2022-11-06T15:17:56;7.97;;;2.37;;
19043;SDS011;9654;52.302;8.120;2022-11-06T15:20:26;5.47;;;1.87;;
19043;SDS011;9654;52.302;8.120;2022-11-06T15:23:00;6.53;;;2.70;;
19043;SDS011;9654;52.302;8.120;2022-11-06T15:25:47;8.93;;;2.73;;
19043;SDS011;9654;52.302;8.120;2022-11-06T15:28:21;9.40;;;2.20;;
19043;SDS011;9654;52.302;8.120;2022-11-06T15:30:51;5.37;;;1.80;;
19043;SDS011;9654;52.302;8.120;2022-11-06T15:33:26;3.87;;;2.30;;
19043;SDS011;9654;52.302;8.120;2022-11-06T15:36:00;7.07;;;1.87;;
19043;SDS011;9654;52.302;8.120;2022-11-06T15:38:35;4.53;;;1.93;;
19043;SDS011;9654;52.302;8.120;2022-11-06T15:41:04;3.03;;;1.70;;
19043;SDS011;9654;52.302;8.120;2022-11-06T15:43:32;5.63;;;2.63;;
19043;SDS011;9654;52.302;8.120;2022-11-06T15:46:02;2.70;;;1.40;;
19043;SDS011;9654;52.302;8.120;2022-11-06T15:48:29;6.13;;;1.70;;
19043;SDS011;9654;52.302;8.120;2022-11-06T15:50:56;2.63;;;1.50;;
19043;SDS011;9654;52.302;8.120;2022-11-06T15:53:25;5.67;;;1.87;;